Weather reports worldwide

Advertisment
Aosta, Italy (16054): temperature & dewpoint: 19.08.2019 07:00:00 - 25.08.2019 07:00:00 (CEST)Aosta, Italy (16054): wind speed: 19.08.2019 07:00:00 - 25.08.2019 07:00:00 (CEST)Aosta, Italy (16054): wind direction: 19.08.2019 07:00:00 - 25.08.2019 07:00:00 (CEST)Aosta, Italy (16054): visibility: 19.08.2019 07:00:00 - 25.08.2019 07:00:00 (CEST)
Date & Time tt [°C] td [°C] ff [km/h] ff [kn] dd vv [km]
25.08.2019 07:00:00 14,7 12,7 2 1 SE -
25.08.2019 06:00:00 15,5 12,8 0 0 N -
25.08.2019 05:00:00 15,8 13,2 5 3 SW -
25.08.2019 04:00:00 16,1 13,1 4 2 SW -
25.08.2019 03:00:00 16,7 13,3 4 2 SSW -
25.08.2019 02:00:00 17,7 14,3 4 2 SW -
25.08.2019 01:00:00 18,5 14,3 2 1 SW -
25.08.2019 00:00:00 19,5 14,9 2 1 S -
24.08.2019 23:00:00 20,8 15,5 0 0 N -
24.08.2019 22:00:00 22,6 15,8 8 4 WSW -
24.08.2019 21:00:00 21,8 15,3 4 2 - 10
24.08.2019 20:00:00 23,1 14,0 4 2 - 10
24.08.2019 19:00:00 25,8 14,2 11 6 E 10
24.08.2019 18:00:00 27,1 12,3 22 12 E 10
24.08.2019 17:00:00 28,9 12,8 29 16 E 10
24.08.2019 16:00:00 28,9 13,5 28 15 E 10
24.08.2019 15:00:00 28,1 13,9 24 13 E 10
24.08.2019 14:00:00 27,9 14,8 22 12 E 10
24.08.2019 13:00:00 27,1 13,7 5 3 - 10
24.08.2019 12:00:00 25,3 15,3 4 2 E -
24.08.2019 11:00:00 23,0 15,5 4 2 - 10
24.08.2019 10:00:00 20,8 16,3 2 1 - 10
24.08.2019 09:00:00 18,4 17,2 0 0 N 10
24.08.2019 08:00:00 15,0 14,1 2 1 WSW 10
24.08.2019 07:00:00 14,3 13,0 0 0 N 10
24.08.2019 06:00:00 14,2 12,4 0 0 N -
24.08.2019 05:00:00 15,2 13,2 0 0 N -
24.08.2019 04:00:00 15,4 13,5 0 0 N -
24.08.2019 03:00:00 16,1 13,9 0 0 N -
24.08.2019 02:00:00 16,7 14,6 4 2 SSW -
24.08.2019 01:00:00 16,9 14,7 2 1 WSW -
24.08.2019 00:00:00 17,8 15,0 2 1 W -
23.08.2019 23:00:00 18,8 16,2 0 0 N -
23.08.2019 22:00:00 19,0 14,8 4 2 SE -
23.08.2019 21:00:00 21,3 16,6 5 3 NNW -
23.08.2019 20:00:00 22,2 16,8 13 7 E 10
23.08.2019 19:00:00 24,1 16,0 18 10 E 10
23.08.2019 18:00:00 25,6 14,3 22 12 E 10
23.08.2019 17:00:00 24,6 16,8 28 15 E 10
23.08.2019 16:00:00 24,9 15,2 39 21 E 10
23.08.2019 15:00:00 25,1 14,8 35 19 E -
23.08.2019 14:00:00 27,5 16,1 22 12 E 10
23.08.2019 13:00:00 26,2 14,9 18 10 ENE 10
23.08.2019 12:00:00 25,3 15,0 9 5 ENE 10
23.08.2019 11:00:00 23,0 14,7 4 2 - 10
23.08.2019 10:00:00 20,7 15,4 4 2 - 10
23.08.2019 09:00:00 17,8 15,0 0 0 N 10
23.08.2019 08:00:00 14,8 13,9 2 1 S 10
23.08.2019 07:00:00 13,7 11,9 0 0 N 10
23.08.2019 06:00:00 14,5 12,2 0 0 N -
23.08.2019 05:00:00 15,3 13,4 4 2 SSW -
23.08.2019 04:00:00 14,7 12,7 4 2 WNW -
23.08.2019 03:00:00 15,9 13,5 2 1 ENE -
23.08.2019 02:00:00 16,5 14,1 4 2 W -
23.08.2019 01:00:00 17,1 13,9 4 2 WSW -
23.08.2019 00:00:00 17,4 13,6 2 1 SW -
22.08.2019 23:00:00 19,3 14,7 0 0 N -
22.08.2019 22:00:00 20,6 15,1 5 3 NW -
22.08.2019 21:00:00 22,0 15,7 2 1 WSW -
22.08.2019 20:00:00 23,7 14,9 9 5 ESE 10
22.08.2019 19:00:00 24,8 15,4 22 12 E 10
22.08.2019 18:00:00 25,2 15,4 28 15 E 10
22.08.2019 17:00:00 25,3 15,8 24 13 E 10
22.08.2019 16:00:00 25,3 15,3 15 8 E 10
22.08.2019 15:00:00 25,8 16,8 5 3 E 10
22.08.2019 14:00:00 24,5 16,4 5 3 - 10
22.08.2019 13:00:00 23,1 15,8 4 2 - 10
22.08.2019 12:00:00 21,9 16,1 4 2 - 10
22.08.2019 11:00:00 20,7 15,6 0 0 N 10
22.08.2019 10:00:00 19,6 16,4 4 2 - 10
22.08.2019 09:00:00 18,6 16,0 5 3 E 10
22.08.2019 08:00:00 17,0 14,8 2 1 - 10
22.08.2019 07:00:00 16,3 14,1 2 1 - 10
22.08.2019 06:00:00 16,1 13,9 0 0 N -
22.08.2019 05:00:00 16,4 14,2 2 1 E -
22.08.2019 04:00:00 17,0 14,2 2 1 E -
22.08.2019 03:00:00 17,7 14,9 0 0 N -
22.08.2019 02:00:00 18,2 14,4 4 2 W -
22.08.2019 01:00:00 20,1 15,5 0 0 N -
22.08.2019 00:00:00 21,3 15,3 4 2 WNW -
21.08.2019 23:00:00 22,2 15,9 5 3 WSW -
21.08.2019 22:00:00 23,0 15,5 5 3 SSW -
21.08.2019 21:00:00 24,9 15,4 9 5 ENE 10
21.08.2019 20:00:00 26,3 14,0 18 10 E 10
21.08.2019 19:00:00 26,9 14,6 24 13 ESE 10
21.08.2019 18:00:00 28,0 15,0 28 15 ESE 10
21.08.2019 17:00:00 29,1 14,1 18 10 E -
21.08.2019 16:00:00 28,7 15,2 18 10 E 10
21.08.2019 15:00:00 27,8 15,1 16 9 E 10
21.08.2019 14:00:00 26,8 13,1 8 4 ESE 10
21.08.2019 13:00:00 25,2 12,7 4 2 - 10
21.08.2019 12:00:00 22,7 12,0 4 2 - 10
21.08.2019 11:00:00 21,2 13,8 2 1 SSW -
21.08.2019 10:00:00 18,4 14,0 2 1 - 10
21.08.2019 09:00:00 16,1 14,4 2 1 - 10
21.08.2019 08:00:00 13,7 13,3 2 1 - 10
21.08.2019 07:00:00 12,2 10,9 2 1 - 10
21.08.2019 06:00:00 12,9 11,5 0 0 N -
21.08.2019 05:00:00 13,6 12,0 0 0 N -
21.08.2019 04:00:00 14,0 12,2 2 1 W -
21.08.2019 03:00:00 15,2 13,7 2 1 W -
21.08.2019 02:00:00 15,2 13,0 4 2 WSW -
21.08.2019 01:00:00 16,8 14,7 0 0 N -
21.08.2019 00:00:00 17,1 15,0 5 3 SW -
20.08.2019 23:00:00 18,1 15,8 2 1 SW -
20.08.2019 22:00:00 18,8 16,0 4 2 SW -
20.08.2019 21:00:00 19,8 16,9 5 3 SW -
20.08.2019 20:00:00 20,2 17,3 9 5 NW 10
20.08.2019 19:00:00 21,2 18,3 5 3 SE 10
20.08.2019 18:00:00 21,7 18,4 2 1 - 10
20.08.2019 17:00:00 20,9 18,0 4 2 - 10
20.08.2019 16:00:00 21,9 18,6 8 4 WNW 10
20.08.2019 15:00:00 21,5 18,6 5 3 WNW 10
20.08.2019 14:00:00 22,5 19,0 5 3 W 10
20.08.2019 13:00:00 21,2 17,7 5 3 E 10
20.08.2019 12:00:00 21,1 18,8 5 3 E 10
20.08.2019 11:00:00 20,7 18,8 2 1 - 10
20.08.2019 10:00:00 20,3 18,5 2 1 - 10
20.08.2019 09:00:00 19,9 18,1 4 2 - 10
20.08.2019 08:00:00 20,1 18,5 2 1 - 10
20.08.2019 07:00:00 19,9 18,0 4 2 E 10
20.08.2019 06:00:00 19,8 17,9 5 3 S -
20.08.2019 05:00:00 19,9 17,8 0 0 N -
20.08.2019 04:00:00 20,0 18,1 2 1 NNE -
20.08.2019 03:00:00 19,7 17,2 4 2 SSW -
20.08.2019 02:00:00 19,9 17,6 2 1 NNE -
20.08.2019 01:00:00 19,4 16,9 2 1 E -
20.08.2019 00:00:00 20,3 16,9 0 0 N -
19.08.2019 23:00:00 20,4 16,6 2 1 NNE -
19.08.2019 22:00:00 22,8 17,0 4 2 NE -
19.08.2019 21:00:00 23,5 16,7 9 5 ENE 10
19.08.2019 20:00:00 25,1 16,5 18 10 E 10
19.08.2019 19:00:00 26,3 17,0 24 13 E 10
19.08.2019 18:00:00 26,9 15,5 22 12 E 10
19.08.2019 17:00:00 27,3 13,9 16 9 E 10
19.08.2019 16:00:00 26,8 14,5 8 4 - 10
19.08.2019 15:00:00 25,1 16,7 8 4 SSE 10
19.08.2019 14:00:00 23,3 16,3 11 6 WSW 10
19.08.2019 13:00:00 24,5 18,6 5 3 SSE 10
19.08.2019 12:00:00 22,8 16,7 5 3 W 10
19.08.2019 11:00:00 21,7 17,8 5 3 WSW 10
19.08.2019 10:00:00 19,9 18,0 4 2 - 10
19.08.2019 09:00:00 19,2 17,6 8 4 ESE 7
19.08.2019 08:00:00 19,4 17,7 4 2 - 8
19.08.2019 07:00:00 19,4 17,5 5 3 - 10

tt = temperature
td = dewpoint
ff = wind speed
dd = wind direction
vv = visibility

Next stations